createdAt,value
2022-08-17T10:41:42.193Z,29.50
2022-08-17T10:44:50.907Z,29.50
2022-08-17T10:47:21.965Z,29.50
2022-08-17T10:49:57.643Z,29.50
2022-08-17T10:52:47.599Z,29.40
2022-08-17T10:55:20.735Z,29.40
2022-08-17T10:57:52.086Z,29.40
2022-08-17T11:00:56.451Z,29.40
2022-08-17T11:03:29.272Z,29.40
2022-08-17T11:06:24.080Z,29.30
2022-08-17T11:09:32.878Z,29.30
2022-08-17T11:12:42.400Z,29.30
2022-08-17T11:15:52.257Z,29.20
2022-08-17T11:18:52.477Z,29.20
2022-08-17T11:21:52.173Z,29.10
2022-08-17T11:24:53.987Z,29.10
2022-08-17T11:27:36.074Z,29.10
2022-08-17T11:30:14.768Z,29.00
2022-08-17T11:32:54.641Z,28.90
2022-08-17T11:35:46.755Z,28.80
2022-08-17T11:38:48.448Z,28.70
2022-08-17T11:41:47.206Z,28.70
2022-08-17T11:44:32.918Z,28.60
2022-08-17T11:48:26.448Z,28.60
2022-08-17T11:51:40.599Z,28.50
2022-08-17T11:54:41.793Z,28.40
2022-08-17T11:57:50.737Z,28.40
2022-08-17T12:00:59.185Z,28.30
2022-08-17T12:03:53.826Z,28.30
2022-08-17T12:06:56.508Z,28.30
2022-08-17T12:09:34.157Z,28.30
2022-08-17T12:12:19.923Z,28.30
2022-08-17T12:17:43.155Z,28.20
2022-08-17T12:20:37.333Z,28.20
2022-08-17T12:23:32.830Z,28.20
2022-08-17T12:26:13.740Z,28.10
2022-08-17T12:28:51.708Z,28.10
2022-08-17T12:31:23.973Z,28.00
2022-08-17T12:33:54.362Z,28.00
2022-08-17T12:36:30.056Z,28.00
2022-08-17T12:39:14.139Z,27.90
2022-08-17T12:41:50.298Z,27.90
2022-08-17T12:44:24.838Z,27.90
2022-08-17T12:47:22.319Z,27.90
2022-08-17T12:49:55.655Z,27.90
2022-08-17T12:52:31.418Z,27.80
2022-08-17T12:55:14.844Z,27.80
2022-08-17T12:57:49.818Z,27.80
2022-08-17T13:00:47.401Z,27.80
2022-08-17T13:03:25.036Z,27.80
2022-08-17T13:06:13.637Z,27.70
2022-08-17T13:08:47.179Z,27.70
2022-08-17T13:11:26.895Z,27.70
2022-08-17T13:13:58.317Z,27.60
2022-08-17T13:16:33.136Z,27.60
2022-08-17T13:19:20.513Z,27.70
2022-08-17T13:22:14.384Z,27.60
2022-08-17T13:24:56.147Z,27.60
2022-08-17T13:27:28.332Z,27.60
2022-08-17T13:30:07.150Z,27.60
2022-08-17T13:32:45.158Z,27.60
2022-08-17T13:35:41.989Z,27.60
2022-08-17T13:38:19.266Z,27.60
2022-08-17T13:40:54.684Z,27.50
2022-08-17T13:43:48.926Z,27.50
2022-08-17T13:46:29.087Z,27.50
2022-08-17T13:49:06.398Z,27.50
2022-08-17T13:51:43.568Z,27.50
2022-08-17T13:54:37.185Z,27.50
2022-08-17T13:57:14.787Z,27.40
2022-08-17T13:59:54.785Z,27.40
2022-08-17T14:02:28.806Z,27.50
2022-08-17T14:05:00.648Z,27.50
2022-08-17T14:07:36.993Z,27.40
2022-08-17T14:10:17.045Z,27.40
2022-08-17T14:12:47.703Z,27.50
2022-08-17T14:15:22.207Z,27.40
2022-08-17T14:17:52.815Z,27.40
2022-08-17T14:20:24.472Z,27.40
2022-08-17T14:22:57.530Z,27.40
2022-08-17T14:25:31.299Z,27.40
2022-08-17T14:28:01.103Z,27.40
2022-08-17T14:30:31.069Z,27.30
2022-08-17T14:33:03.755Z,27.30
2022-08-17T14:35:33.414Z,27.30
2022-08-17T14:38:03.906Z,27.30
2022-08-17T14:40:35.047Z,27.20
2022-08-17T14:43:04.957Z,27.20
2022-08-17T14:45:35.468Z,27.20
2022-08-17T14:48:10.373Z,27.20
2022-08-17T14:50:42.937Z,27.20
2022-08-17T14:53:15.579Z,27.10
2022-08-17T14:55:47.525Z,27.10
2022-08-17T14:58:18.380Z,27.10
2022-08-17T15:00:48.247Z,27.00
2022-08-17T15:03:20.140Z,27.00
2022-08-17T15:05:50.274Z,27.00
2022-08-17T15:08:20.260Z,27.00
2022-08-17T15:10:54.401Z,27.00
2022-08-17T15:13:26.759Z,26.90
2022-08-17T15:15:57.888Z,26.90
2022-08-17T15:18:27.621Z,26.90
2022-08-17T15:20:57.351Z,26.90
2022-08-17T15:23:28.659Z,26.90
2022-08-17T15:25:58.250Z,26.90
2022-08-17T15:28:31.424Z,26.90
2022-08-17T15:31:02.309Z,26.90
2022-08-17T15:33:32.809Z,26.90
2022-08-17T15:36:06.130Z,26.90
2022-08-17T15:38:41.107Z,26.90
2022-08-17T15:41:17.160Z,26.90
2022-08-17T15:43:51.530Z,26.90
2022-08-17T15:46:24.876Z,26.80
2022-08-17T15:49:00.910Z,26.80
2022-08-17T15:51:36.867Z,26.80
2022-08-17T15:54:19.067Z,26.80
2022-08-17T15:56:54.691Z,26.70
2022-08-17T15:59:24.355Z,26.70
2022-08-17T16:03:15.986Z,26.70
2022-08-17T16:04:46.222Z,26.70
2022-08-17T16:07:26.710Z,26.60
2022-08-17T16:09:59.830Z,26.70
2022-08-17T16:12:29.647Z,26.60
2022-08-17T16:14:59.427Z,26.70
2022-08-17T16:17:39.573Z,26.70
2022-08-17T16:20:20.097Z,26.60
2022-08-17T16:22:52.291Z,26.60
2022-08-17T16:25:50.398Z,26.60
2022-08-17T16:28:30.889Z,26.50
2022-08-17T16:31:08.006Z,26.50
2022-08-17T16:33:41.216Z,26.50
2022-08-17T16:36:12.686Z,26.40
2022-08-17T16:38:42.318Z,26.40
2022-08-17T16:41:14.366Z,26.30
2022-08-17T16:43:47.219Z,26.30
2022-08-17T16:46:16.934Z,26.30
2022-08-17T16:48:48.195Z,26.20
2022-08-17T16:51:17.786Z,26.20
2022-08-17T16:53:47.366Z,26.20
2022-08-17T16:56:28.406Z,26.10
2022-08-17T16:58:57.987Z,26.10
2022-08-17T17:01:44.980Z,26.10
2022-08-17T17:04:19.334Z,26.10
2022-08-17T17:07:18.899Z,26.10
2022-08-17T17:09:54.132Z,26.00
2022-08-17T17:13:00.933Z,26.00
2022-08-17T17:15:17.609Z,26.00
2022-08-17T17:17:53.909Z,26.00
2022-08-17T17:20:31.356Z,25.90
2022-08-17T17:23:20.256Z,25.90
2022-08-17T17:26:05.254Z,25.90
2022-08-17T17:28:57.814Z,25.90
2022-08-17T17:31:33.600Z,25.80
2022-08-17T17:34:06.487Z,25.80
2022-08-17T17:36:48.849Z,25.80
2022-08-17T17:39:22.575Z,25.80
2022-08-17T17:41:58.394Z,25.70
2022-08-17T17:44:35.078Z,25.80
2022-08-17T17:47:05.817Z,25.70
2022-08-17T17:49:40.476Z,25.70
2022-08-17T17:52:42.667Z,25.70
2022-08-17T17:55:51.435Z,25.70
2022-08-17T17:58:55.567Z,25.70
2022-08-17T18:01:52.326Z,25.70
2022-08-17T18:04:43.098Z,25.70
2022-08-17T18:07:37.031Z,25.70
2022-08-17T18:10:30.134Z,25.70
2022-08-17T18:13:37.050Z,25.60
2022-08-17T18:16:12.548Z,25.60
2022-08-17T18:18:46.407Z,25.50
2022-08-17T18:21:21.940Z,25.50
2022-08-17T18:23:56.680Z,25.50
2022-08-17T18:26:56.828Z,25.40
2022-08-17T18:29:38.878Z,25.40
2022-08-17T18:32:36.144Z,25.40
2022-08-17T18:35:29.971Z,25.40
2022-08-17T18:38:20.248Z,25.30
2022-08-17T18:41:01.038Z,25.30
2022-08-17T18:43:44.064Z,25.30
2022-08-17T18:46:32.047Z,25.30
2022-08-17T18:49:08.463Z,25.30
2022-08-17T18:51:44.727Z,25.20
2022-08-17T18:54:26.608Z,25.20
2022-08-17T18:57:01.357Z,25.20
2022-08-17T18:59:50.652Z,25.20
2022-08-17T19:02:43.873Z,25.10
2022-08-17T19:05:38.640Z,25.10
2022-08-17T19:08:37.816Z,25.10
2022-08-17T19:11:36.047Z,25.10
2022-08-17T19:14:11.959Z,25.10
2022-08-17T19:16:57.386Z,25.10
2022-08-17T19:19:51.482Z,25.00
2022-08-17T19:22:31.037Z,25.10
2022-08-17T19:25:22.680Z,25.00
2022-08-17T19:28:22.521Z,24.90
2022-08-17T19:30:58.824Z,25.00
2022-08-17T19:33:28.808Z,25.00
2022-08-17T19:36:32.419Z,25.00
2022-08-17T19:39:42.961Z,24.90
2022-08-17T19:42:51.309Z,25.00
2022-08-17T19:45:50.713Z,25.00
2022-08-17T19:48:59.468Z,25.00
2022-08-17T19:51:54.179Z,25.00
2022-08-17T19:54:46.299Z,25.10
2022-08-17T19:57:55.109Z,25.10
2022-08-17T20:00:24.837Z,25.10
2022-08-17T20:03:16.420Z,25.00
2022-08-17T20:06:12.458Z,25.10
2022-08-17T20:09:05.601Z,25.10
2022-08-17T20:11:48.525Z,25.00
2022-08-17T20:14:23.147Z,25.00
2022-08-17T20:16:53.396Z,25.00
2022-08-17T20:19:38.838Z,25.00
2022-08-17T20:22:22.795Z,25.00
2022-08-17T20:25:17.084Z,25.00
2022-08-17T20:28:08.378Z,24.90
2022-08-17T20:30:44.296Z,24.90
2022-08-17T20:33:39.007Z,24.90
2022-08-17T20:36:23.282Z,24.90
2022-08-17T20:39:00.872Z,24.80
2022-08-17T20:41:32.495Z,24.80
2022-08-17T20:44:07.204Z,24.70
2022-08-17T20:46:58.748Z,24.80
2022-08-17T20:49:55.315Z,24.80
2022-08-17T20:52:48.605Z,24.80
2022-08-17T20:55:53.567Z,24.80
2022-08-17T20:58:48.212Z,24.80
2022-08-17T21:01:26.010Z,24.80
2022-08-17T21:03:57.717Z,24.80
2022-08-17T21:06:27.919Z,24.80
2022-08-17T21:09:31.550Z,24.80
2022-08-17T21:12:05.637Z,24.80
2022-08-17T21:15:03.263Z,24.80
2022-08-17T21:17:53.454Z,24.80
2022-08-17T21:20:44.869Z,24.80
2022-08-17T21:23:31.389Z,24.90
2022-08-17T21:26:32.650Z,24.90
2022-08-17T21:29:31.286Z,24.90
2022-08-17T21:32:21.816Z,24.90
2022-08-17T21:35:31.735Z,24.90
2022-08-17T21:38:16.863Z,25.00
2022-08-17T21:40:51.597Z,25.00
2022-08-17T21:43:35.930Z,25.00
2022-08-17T21:46:22.579Z,25.10
2022-08-17T21:48:54.515Z,25.10
2022-08-17T21:51:30.950Z,25.10
2022-08-17T21:54:05.460Z,25.10
2022-08-17T21:56:41.549Z,25.10
2022-08-17T21:59:27.767Z,25.10
2022-08-17T22:02:04.022Z,25.10
2022-08-17T22:04:38.468Z,25.10
2022-08-17T22:07:14.287Z,25.10
2022-08-17T22:09:47.501Z,25.10
2022-08-17T22:12:22.986Z,25.00
2022-08-17T22:15:08.939Z,25.00
2022-08-17T22:17:47.867Z,25.00
2022-08-17T22:20:22.471Z,24.90
2022-08-17T22:23:35.097Z,24.90
2022-08-17T22:26:09.604Z,24.90
2022-08-17T22:28:51.449Z,24.90
2022-08-17T22:31:26.889Z,24.90
2022-08-17T22:34:16.050Z,24.90
2022-08-17T22:36:45.800Z,24.90
2022-08-17T22:39:42.434Z,24.90
2022-08-17T22:42:17.027Z,24.90
2022-08-17T22:44:52.178Z,24.90
2022-08-17T22:47:33.128Z,24.90
2022-08-17T22:50:14.275Z,24.90
2022-08-17T22:53:06.915Z,24.80
2022-08-17T22:55:56.638Z,24.80
2022-08-17T22:58:59.247Z,24.70
2022-08-17T23:01:34.019Z,24.70
2022-08-17T23:04:09.376Z,24.70
2022-08-17T23:06:41.228Z,24.70
2022-08-17T23:09:11.539Z,24.70
2022-08-17T23:11:50.250Z,24.70
2022-08-17T23:14:22.368Z,24.60
2022-08-17T23:16:52.598Z,24.60
2022-08-17T23:19:23.730Z,24.50
2022-08-17T23:21:54.212Z,24.50
2022-08-17T23:24:27.528Z,24.60
2022-08-17T23:26:59.797Z,24.60
2022-08-17T23:29:30.960Z,24.60
2022-08-17T23:32:02.890Z,24.60
2022-08-17T23:34:32.848Z,24.60
2022-08-17T23:37:03.839Z,24.60
2022-08-17T23:39:33.687Z,24.60
2022-08-17T23:42:09.489Z,24.70
2022-08-17T23:44:40.759Z,24.70
2022-08-17T23:47:10.590Z,24.70
2022-08-17T23:49:40.763Z,24.70
2022-08-17T23:52:15.364Z,24.70
2022-08-17T23:54:49.015Z,24.80
2022-08-17T23:57:33.927Z,24.80
